Airfield :
LOGIN :

Register | Disclaimer

   EN    FR    IT 

 










Legend :    VFR   Marginal VFR   IFR   Intensive IFR   Very Intensive IFR
Visi :
Ceiling :
>= 8 km
>= 3000ft
5 to 8 km
1000 to 3000 ft
1500m to 5 km
500 to 1000 ft
800 to 1500m
200 to 500 ft
< 800m
< 200 ft
Symbols :   Thunderstorms  Fog  Heavy snow  Heavy precipitations  Wind > 20 kt
SIGMETs :     Misc.  Thunderstorms  Icing  Turbulence  Mountain Waves  Volcanic Ashes







- Airport Elevation : 15 ft
- IATA code : FCO


LIRF - Roma Leonardo da Vinci Fiumicino

CURRENT METAR :
  • 230550Z 02012KT CAVOK 08/M06 Q1024 TEMPO 36020G30KT

EXPIRED METARs :
  • 230520Z 36012KT CAVOK 09/M06 Q1023 NOSIG
  • 230450Z 36006KT CAVOK 08/M03 Q1023 NOSIG
  • 230420Z 34007KT CAVOK 08/M02 Q1023 NOSIG
  • 230350Z 34007KT CAVOK 09/M01 Q1023 NOSIG
  • 230320Z 36008KT CAVOK 09/01 Q1022 NOSIG

TAF TAF LIRF
Valid from the 23 at 06:00 until the 24 at 12:00 UTC


230500Z 2306/2412 02018G28KT CAVOK
TEMPO 2306/2314 02025G35KT
No reported NOTAMs for that airfield.
4 SIGMETs reported for the Roma FIR (LIRR) :
 
Embedded thunderstorms
LIRR SIGMET 9 VALID 230620/230820 LIIB
LIRR ROMA FIR EMBD TS FCST WI N3821 E01248 - N3824 E01451 - N3901 E01619 - N3849 E01852 - N3637 E01857 - N3631 E01558 - N3651 E01337 - N3727 E01222 - N3821 E01248 TOP FL270 MOV S NC=
Severe turbulence
LIRR SIGMET 8 VALID 230530/230830 LIIB
LIRR ROMA FIR SEV TURB FCST WI N3858 E01622 - N3853 E01841 - N3725 E01759 - N3705 E01550 - N3815 E01525 - N3847 E01206 - N3757 E01036 - N3858 E00810 - N4055 E00943 - N4228 E01006 - N4315 E01030 - N4327 E01230 - N4118 E01439 - N4110 E01513 - N3858 E01622 FL010/140 STNR NC=
Severe turbulence
LIRR SIGMET 7 VALID 230530/230830 LIIB
LIRR ROMA FIR SEV TURB FCST WI N4331 E01316 - N4108 E01138 - N3839 E01031 - N3730 E01132 - N3632 E01219 - N3628 E01623 - N3849 E01848 - N3854 E01646 - N3907 E01616 - N4113 E01503 - N4127 E01421 - N4255 E01304 - N4331 E01316 FL200/380 MOV SE NC=
Embedded thunderstorms
LIRR SIGMET 6 VALID 230420/230620 LIIB
LIRR ROMA FIR EMBD TS FCST WI N3757 E01305 - N3824 E01451 - N3901 E01619 - N3849 E01852 - N3637 E01857 - N3631 E01558 - N3651 E01337 - N3727 E01223 - N3757 E01305 TOP FL300 MOV S NC=



MET'MAP, your aeronautical weather chart ! - Copyright ORBIFLY December 2007 - Disclaimer

ORBIFLY MET'MAP TEAM :

Programming & Development : Alexandra Zaïnal
Concept & Development : Baudouin d'Aumeries
Co-Development & Prog : Marc-Olivier Méhu
Technical & hardware support : Manuel Goepfert

Contact : metmap@orbifly.com




SOURCES & CREDITS :

   NOAA